TimeCDT,TemperatureF,Dew PointF,Humidity,Sea Level PressureIn,VisibilityMPH,Wind Direction,Wind SpeedMPH,Gust SpeedMPH,PrecipitationIn,Events,Conditions,WindDirDegrees,DateUTC
12:58 AM,69.4,65.5,87,30.04,10.0,South,2.3,-,N/A,,Mostly Cloudy,180,2013-08-09 05:58:00
2:58 AM,62.6,62.6,100,30.03,6.0,Calm,Calm,-,N/A,,Partly Cloudy,0,2013-08-09 07:58:00
3:59 AM,60.8,60.8,100,30.04,6.0,Calm,Calm,-,N/A,,Clear,0,2013-08-09 08:59:00
4:55 AM,60.6,60.1,98,30.01,6.0,Calm,Calm,-,N/A,,Clear,0,2013-08-09 09:55:00
4:58 AM,60.6,60.1,98,30.01,6.0,Calm,Calm,-,N/A,,Clear,0,2013-08-09 09:58:00
5:01 AM,60.8,60.8,100,30.01,6.0,Calm,Calm,-,N/A,,Clear,0,2013-08-09 10:01:00
5:58 AM,59.5,59.5,100,30.03,7.0,Calm,Calm,-,N/A,,Mostly Cloudy,0,2013-08-09 10:58:00
6:58 AM,58.3,58.3,100,30.04,5.0,Calm,Calm,-,N/A,,Mostly Cloudy,0,2013-08-09 11:58:00
7:58 AM,64.4,64.4,100,30.06,10.0,West,3.5,-,N/A,,Clear,280,2013-08-09 12:58:00
8:58 AM,68.9,68.9,100,30.06,10.0,Variable,3.5,-,N/A,,Clear,0,2013-08-09 13:58:00
9:19 AM,73.4,69.8,88,30.06,10.0,West,4.6,-,N/A,,Light Drizzle,260,2013-08-09 14:19:00
9:38 AM,77.0,68.0,74,30.07,10.0,West,4.6,-,N/A,,Clear,260,2013-08-09 14:38:00
9:49 AM,77.0,69.8,78,30.06,10.0,Variable,5.8,-,N/A,Rain,Light Rain,0,2013-08-09 14:49:00
9:58 AM,77.0,68.0,74,30.06,10.0,NNE,3.5,-,N/A,,Partly Cloudy,20,2013-08-09 14:58:00
10:58 AM,78.8,68.0,69,30.07,10.0,North,8.1,-,N/A,,Partly Cloudy,350,2013-08-09 15:58:00
11:58 AM,79.9,66.9,64,30.07,10.0,NNE,8.1,-,N/A,,Partly Cloudy,30,2013-08-09 16:58:00
12:58 PM,80.2,65.8,61,30.07,10.0,North,8.1,-,N/A,,Partly Cloudy,10,2013-08-09 17:58:00
1:58 PM,82.2,64.8,55,30.07,10.0,NNE,9.2,-,N/A,,Partly Cloudy,30,2013-08-09 18:58:00
2:58 PM,81.1,64.8,57,30.08,10.0,North,6.9,-,N/A,,Partly Cloudy,10,2013-08-09 19:58:00
3:58 PM,80.2,62.2,54,30.09,10.0,NNE,8.1,-,N/A,,Clear,30,2013-08-09 20:58:00
4:58 PM,80.2,63.3,56,30.09,10.0,NE,6.9,-,N/A,,Clear,40,2013-08-09 21:58:00
5:58 PM,79.2,60.4,53,30.09,10.0,NNE,8.1,-,N/A,,Clear,20,2013-08-09 22:58:00
6:58 PM,79.0,58.6,50,30.08,10.0,NNE,6.9,-,N/A,,Clear,20,2013-08-09 23:58:00
7:58 PM,75.0,60.3,60,30.09,10.0,NE,4.6,-,N/A,,Clear,40,2013-08-10 00:58:00
8:58 PM,66.2,59.0,78,30.11,10.0,NE,3.5,-,N/A,,Clear,50,2013-08-10 01:58:00
9:58 PM,60.8,59.0,94,30.13,10.0,NE,2.3,-,N/A,,Clear,40,2013-08-10 02:58:00
10:58 PM,58.5,58.3,99,30.14,10.0,Calm,Calm,-,N/A,,Clear,0,2013-08-10 03:58:00
11:58 PM,58.3,57.9,99,30.15,10.0,WNW,3.5,-,N/A,,Clear,290,2013-08-10 04:58:00